sensor_id;sensor_type;location;lat;lon;timestamp;pressure;altitude;pressure_sealevel;temperature;humidity
6387;BME280;3226;42.162;24.756;2023-08-20T00:00:37;99806.78;;;22.89;60.05
6387;BME280;3226;42.162;24.756;2023-08-20T00:03:11;99784.56;;;22.55;60.81
6387;BME280;3226;42.162;24.756;2023-08-20T00:05:40;99792.34;;;22.56;60.60
6387;BME280;3226;42.162;24.756;2023-08-20T00:08:08;99791.16;;;22.65;60.36
6387;BME280;3226;42.162;24.756;2023-08-20T00:10:36;99792.53;;;22.48;60.48
6387;BME280;3226;42.162;24.756;2023-08-20T00:13:04;99788.25;;;22.53;60.66
6387;BME280;3226;42.162;24.756;2023-08-20T00:15:34;99792.38;;;22.63;60.77
6387;BME280;3226;42.162;24.756;2023-08-20T00:18:02;99783.16;;;22.65;60.38
6387;BME280;3226;42.162;24.756;2023-08-20T00:20:31;99776.34;;;22.63;60.35
6387;BME280;3226;42.162;24.756;2023-08-20T00:23:00;99781.69;;;22.56;60.67
6387;BME280;3226;42.162;24.756;2023-08-20T00:25:29;99780.06;;;22.69;60.43
6387;BME280;3226;42.162;24.756;2023-08-20T00:27:57;99770.00;;;22.77;60.04
6387;BME280;3226;42.162;24.756;2023-08-20T00:30:25;99769.38;;;22.62;60.37
6387;BME280;3226;42.162;24.756;2023-08-20T00:32:54;99766.28;;;22.58;60.31
6387;BME280;3226;42.162;24.756;2023-08-20T00:35:23;99771.63;;;22.51;60.87
6387;BME280;3226;42.162;24.756;2023-08-20T00:37:51;99781.81;;;22.41;61.09
6387;BME280;3226;42.162;24.756;2023-08-20T00:40:19;99775.00;;;22.25;61.19
6387;BME280;3226;42.162;24.756;2023-08-20T00:42:47;99759.03;;;22.32;60.63
6387;BME280;3226;42.162;24.756;2023-08-20T00:45:15;99759.72;;;22.47;59.87
6387;BME280;3226;42.162;24.756;2023-08-20T00:47:44;99767.31;;;22.50;59.66
6387;BME280;3226;42.162;24.756;2023-08-20T00:50:13;99749.47;;;22.58;59.24
6387;BME280;3226;42.162;24.756;2023-08-20T00:52:42;99768.34;;;22.76;58.94
6387;BME280;3226;42.162;24.756;2023-08-20T00:55:12;99759.53;;;22.69;59.43
6387;BME280;3226;42.162;24.756;2023-08-20T00:57:41;99768.97;;;22.78;59.20
6387;BME280;3226;42.162;24.756;2023-08-20T01:00:10;99767.34;;;22.91;58.78
6387;BME280;3226;42.162;24.756;2023-08-20T01:02:38;99774.13;;;22.93;58.56
6387;BME280;3226;42.162;24.756;2023-08-20T01:05:08;99768.56;;;22.75;59.40
6387;BME280;3226;42.162;24.756;2023-08-20T01:07:49;99749.47;;;22.71;59.16
6387;BME280;3226;42.162;24.756;2023-08-20T01:10:26;99764.47;;;22.99;58.65
6387;BME280;3226;42.162;24.756;2023-08-20T01:12:57;99755.00;;;23.03;58.28
6387;BME280;3226;42.162;24.756;2023-08-20T01:15:25;99760.75;;;22.93;58.85
6387;BME280;3226;42.162;24.756;2023-08-20T01:17:54;99756.47;;;22.99;58.80
6387;BME280;3226;42.162;24.756;2023-08-20T01:20:26;99754.19;;;22.96;58.72
6387;BME280;3226;42.162;24.756;2023-08-20T01:26:17;99754.63;;;22.93;59.20
6387;BME280;3226;42.162;24.756;2023-08-20T01:28:50;99749.91;;;22.81;59.05
6387;BME280;3226;42.162;24.756;2023-08-20T01:31:20;99747.22;;;22.95;58.77
6387;BME280;3226;42.162;24.756;2023-08-20T01:33:48;99741.88;;;23.02;58.72
6387;BME280;3226;42.162;24.756;2023-08-20T01:36:16;99742.69;;;22.95;59.16
6387;BME280;3226;42.162;24.756;2023-08-20T01:38:44;99744.34;;;22.90;59.00
6387;BME280;3226;42.162;24.756;2023-08-20T01:41:12;99744.75;;;22.87;59.74
6387;BME280;3226;42.162;24.756;2023-08-20T01:43:40;99739.00;;;22.83;59.62
6387;BME280;3226;42.162;24.756;2023-08-20T01:46:10;99737.97;;;22.64;60.20
6387;BME280;3226;42.162;24.756;2023-08-20T01:48:39;99737.34;;;22.75;60.43
6387;BME280;3226;42.162;24.756;2023-08-20T01:51:07;99736.31;;;22.76;60.15
6387;BME280;3226;42.162;24.756;2023-08-20T01:53:36;99733.06;;;22.81;59.89
6387;BME280;3226;42.162;24.756;2023-08-20T01:56:04;99737.97;;;22.71;60.38
6387;BME280;3226;42.162;24.756;2023-08-20T01:58:37;99734.47;;;22.70;60.22
6387;BME280;3226;42.162;24.756;2023-08-20T02:01:05;99736.13;;;22.78;60.30
6387;BME280;3226;42.162;24.756;2023-08-20T02:03:36;99733.06;;;22.88;59.55
6387;BME280;3226;42.162;24.756;2023-08-20T02:06:04;99731.81;;;22.84;59.79
6387;BME280;3226;42.162;24.756;2023-08-20T02:08:32;99733.25;;;22.79;60.12
6387;BME280;3226;42.162;24.756;2023-08-20T02:11:01;99734.06;;;22.80;60.28
6387;BME280;3226;42.162;24.756;2023-08-20T02:13:30;99730.56;;;22.79;60.03
6387;BME280;3226;42.162;24.756;2023-08-20T02:16:00;99740.88;;;22.83;59.87
6387;BME280;3226;42.162;24.756;2023-08-20T02:18:28;99734.88;;;22.80;60.27
6387;BME280;3226;42.162;24.756;2023-08-20T02:20:57;99735.31;;;22.91;59.59
6387;BME280;3226;42.162;24.756;2023-08-20T02:23:26;99733.88;;;22.81;59.34
6387;BME280;3226;42.162;24.756;2023-08-20T02:25:54;99728.94;;;22.65;59.12
6387;BME280;3226;42.162;24.756;2023-08-20T02:28:22;99731.22;;;22.81;59.23
6387;BME280;3226;42.162;24.756;2023-08-20T02:30:50;99735.53;;;22.83;58.69
6387;BME280;3226;42.162;24.756;2023-08-20T02:33:18;99740.22;;;22.80;58.22
6387;BME280;3226;42.162;24.756;2023-08-20T02:35:46;99735.72;;;22.74;58.55
6387;BME280;3226;42.162;24.756;2023-08-20T02:38:15;99744.56;;;22.81;58.37
6387;BME280;3226;42.162;24.756;2023-08-20T02:40:43;99737.34;;;22.82;58.90
6387;BME280;3226;42.162;24.756;2023-08-20T02:43:11;99748.44;;;22.79;59.24
6387;BME280;3226;42.162;24.756;2023-08-20T02:45:40;99749.25;;;22.79;59.09
6387;BME280;3226;42.162;24.756;2023-08-20T02:48:10;99738.19;;;22.69;59.28
6387;BME280;3226;42.162;24.756;2023-08-20T02:50:38;99747.84;;;22.77;59.58
6387;BME280;3226;42.162;24.756;2023-08-20T02:53:07;99741.06;;;22.67;59.55
6387;BME280;3226;42.162;24.756;2023-08-20T02:55:36;99745.16;;;22.77;59.44
6387;BME280;3226;42.162;24.756;2023-08-20T02:58:04;99745.16;;;22.70;59.44
6387;BME280;3226;42.162;24.756;2023-08-20T03:00:34;99748.88;;;22.76;59.23
6387;BME280;3226;42.162;24.756;2023-08-20T03:03:03;99752.94;;;22.78;59.43
6387;BME280;3226;42.162;24.756;2023-08-20T03:05:32;99756.47;;;22.79;59.39
6387;BME280;3226;42.162;24.756;2023-08-20T03:08:01;99755.00;;;22.76;59.64
6387;BME280;3226;42.162;24.756;2023-08-20T03:10:30;99756.47;;;22.79;59.58
6387;BME280;3226;42.162;24.756;2023-08-20T03:13:01;99759.94;;;22.79;59.42
6387;BME280;3226;42.162;24.756;2023-08-20T03:15:29;99740.63;;;22.50;60.41
6387;BME280;3226;42.162;24.756;2023-08-20T03:17:57;99755.81;;;22.57;60.41
6387;BME280;3226;42.162;24.756;2023-08-20T03:20:25;99758.28;;;22.65;60.11
6387;BME280;3226;42.162;24.756;2023-08-20T03:22:54;99747.59;;;22.58;60.67
6387;BME280;3226;42.162;24.756;2023-08-20T03:25:23;99753.56;;;22.53;60.85
6387;BME280;3226;42.162;24.756;2023-08-20T03:27:51;99755.81;;;22.57;60.88
6387;BME280;3226;42.162;24.756;2023-08-20T03:30:21;99745.16;;;22.63;60.41
6387;BME280;3226;42.162;24.756;2023-08-20T03:32:49;99756.66;;;22.64;60.49
6387;BME280;3226;42.162;24.756;2023-08-20T03:35:17;99754.81;;;22.64;60.39
6387;BME280;3226;42.162;24.756;2023-08-20T03:37:45;99750.72;;;22.69;60.12
6387;BME280;3226;42.162;24.756;2023-08-20T03:40:13;99751.72;;;22.54;60.62
6387;BME280;3226;42.162;24.756;2023-08-20T03:42:42;99753.34;;;22.48;60.99
6387;BME280;3226;42.162;24.756;2023-08-20T03:45:10;99752.25;;;22.22;62.15
6387;BME280;3226;42.162;24.756;2023-08-20T03:47:39;99730.69;;;22.17;61.30
6387;BME280;3226;42.162;24.756;2023-08-20T03:50:11;99746.72;;;22.31;60.37
6387;BME280;3226;42.162;24.756;2023-08-20T03:52:39;99756.44;;;22.52;60.52
6387;BME280;3226;42.162;24.756;2023-08-20T03:55:07;99752.94;;;22.58;60.81
6387;BME280;3226;42.162;24.756;2023-08-20T03:57:36;99750.69;;;22.62;60.37
6387;BME280;3226;42.162;24.756;2023-08-20T04:00:05;99757.88;;;22.68;60.55
6387;BME280;3226;42.162;24.756;2023-08-20T04:02:35;99757.69;;;22.63;60.12
6387;BME280;3226;42.162;24.756;2023-08-20T04:05:04;99755.63;;;22.72;59.20
6387;BME280;3226;42.162;24.756;2023-08-20T04:07:32;99756.66;;;22.64;59.09
6387;BME280;3226;42.162;24.756;2023-08-20T04:10:00;99764.84;;;22.56;59.04
6387;BME280;3226;42.162;24.756;2023-08-20T04:12:29;99765.06;;;22.61;59.06
6387;BME280;3226;42.162;24.756;2023-08-20T04:14:57;99765.25;;;22.52;59.42
6387;BME280;3226;42.162;24.756;2023-08-20T04:17:25;99767.09;;;22.52;59.24
6387;BME280;3226;42.162;24.756;2023-08-20T04:19:53;99757.63;;;22.43;59.29
6387;BME280;3226;42.162;24.756;2023-08-20T04:22:22;99764.44;;;22.59;59.18
6387;BME280;3226;42.162;24.756;2023-08-20T04:24:50;99771.84;;;22.63;59.09
6387;BME280;3226;42.162;24.756;2023-08-20T04:27:18;99767.31;;;22.64;59.06
6387;BME280;3226;42.162;24.756;2023-08-20T04:29:46;99778.00;;;22.50;59.66
6387;BME280;3226;42.162;24.756;2023-08-20T04:32:14;99773.88;;;22.55;59.68
6387;BME280;3226;42.162;24.756;2023-08-20T04:34:42;99778.59;;;22.52;59.93
6387;BME280;3226;42.162;24.756;2023-08-20T04:37:10;99775.53;;;22.56;59.87
6387;BME280;3226;42.162;24.756;2023-08-20T04:39:39;99779.22;;;22.55;59.69
6387;BME280;3226;42.162;24.756;2023-08-20T04:42:07;99773.81;;;22.41;60.27
6387;BME280;3226;42.162;24.756;2023-08-20T04:44:35;99777.56;;;22.60;59.43
6387;BME280;3226;42.162;24.756;2023-08-20T04:47:03;99769.41;;;22.69;59.29
6387;BME280;3226;42.162;24.756;2023-08-20T04:49:31;99785.41;;;22.75;59.33
6387;BME280;3226;42.162;24.756;2023-08-20T04:51:59;99779.66;;;22.72;59.52
6387;BME280;3226;42.162;24.756;2023-08-20T04:54:27;99780.25;;;22.67;59.50
6387;BME280;3226;42.162;24.756;2023-08-20T04:56:57;99776.34;;;22.76;59.96
6387;BME280;3226;42.162;24.756;2023-08-20T04:59:25;99779.03;;;22.83;59.49
6387;BME280;3226;42.162;24.756;2023-08-20T05:01:53;99781.31;;;22.86;58.88
6387;BME280;3226;42.162;24.756;2023-08-20T05:04:21;99786.84;;;22.71;59.31
6387;BME280;3226;42.162;24.756;2023-08-20T05:06:49;99788.66;;;22.50;59.43
6387;BME280;3226;42.162;24.756;2023-08-20T05:09:17;99778.13;;;22.42;59.53
6387;BME280;3226;42.162;24.756;2023-08-20T05:11:45;99781.00;;;22.41;59.57
6387;BME280;3226;42.162;24.756;2023-08-20T05:14:14;99787.03;;;22.49;59.53
6387;BME280;3226;42.162;24.756;2023-08-20T05:16:42;99780.78;;;22.42;60.10
6387;BME280;3226;42.162;24.756;2023-08-20T05:19:10;99777.75;;;22.45;59.85
6387;BME280;3226;42.162;24.756;2023-08-20T05:21:38;99799.94;;;22.52;60.12
6387;BME280;3226;42.162;24.756;2023-08-20T05:24:06;99799.31;;;22.57;60.09
6387;BME280;3226;42.162;24.756;2023-08-20T05:26:34;99809.63;;;22.67;59.64
6387;BME280;3226;42.162;24.756;2023-08-20T05:29:02;99806.13;;;22.66;60.08
6387;BME280;3226;42.162;24.756;2023-08-20T05:31:32;99798.72;;;22.55;60.82
6387;BME280;3226;42.162;24.756;2023-08-20T05:34:00;99803.78;;;22.43;61.23
6387;BME280;3226;42.162;24.756;2023-08-20T05:36:28;99814.66;;;22.42;61.61
6387;BME280;3226;42.162;24.756;2023-08-20T05:38:56;99802.03;;;22.71;60.62
6387;BME280;3226;42.162;24.756;2023-08-20T05:41:24;99808.81;;;22.73;60.62
6387;BME280;3226;42.162;24.756;2023-08-20T05:43:52;99812.88;;;22.49;61.39
6387;BME280;3226;42.162;24.756;2023-08-20T05:46:20;99802.03;;;22.64;60.94
6387;BME280;3226;42.162;24.756;2023-08-20T05:48:49;99803.91;;;22.84;60.63
6387;BME280;3226;42.162;24.756;2023-08-20T05:51:17;99796.09;;;22.82;60.63
6387;BME280;3226;42.162;24.756;2023-08-20T05:53:45;99793.44;;;23.09;60.55
6387;BME280;3226;42.162;24.756;2023-08-20T05:56:13;99807.22;;;23.26;59.46
6387;BME280;3226;42.162;24.756;2023-08-20T05:58:41;99805.38;;;23.40;59.81
6387;BME280;3226;42.162;24.756;2023-08-20T06:01:09;99801.63;;;23.61;59.35
6387;BME280;3226;42.162;24.756;2023-08-20T06:03:37;99810.19;;;23.83;58.55
6387;BME280;3226;42.162;24.756;2023-08-20T06:06:06;99809.97;;;24.05;57.60
6387;BME280;3226;42.162;24.756;2023-08-20T06:08:35;99810.13;;;24.10;56.74
6387;BME280;3226;42.162;24.756;2023-08-20T06:11:03;99804.97;;;24.16;56.73
6387;BME280;3226;42.162;24.756;2023-08-20T06:13:31;99813.53;;;24.31;56.53
6387;BME280;3226;42.162;24.756;2023-08-20T06:15:59;99813.16;;;24.28;57.04
6387;BME280;3226;42.162;24.756;2023-08-20T06:18:27;99813.53;;;24.31;57.46
6387;BME280;3226;42.162;24.756;2023-08-20T06:20:55;99814.09;;;24.40;56.96
6387;BME280;3226;42.162;24.756;2023-08-20T06:23:24;99815.09;;;24.46;56.35
6387;BME280;3226;42.162;24.756;2023-08-20T06:26:09;99816.59;;;24.35;56.16
6387;BME280;3226;42.162;24.756;2023-08-20T06:28:36;99820.06;;;24.42;55.88
6387;BME280;3226;42.162;24.756;2023-08-20T06:31:04;99815.06;;;24.52;55.49
6387;BME280;3226;42.162;24.756;2023-08-20T06:33:32;99823.38;;;24.69;54.89
6387;BME280;3226;42.162;24.756;2023-08-20T06:36:01;99835.03;;;24.89;54.48
6387;BME280;3226;42.162;24.756;2023-08-20T06:38:30;99832.75;;;24.92;54.55
6387;BME280;3226;42.162;24.756;2023-08-20T06:40:58;99829.16;;;25.05;54.23
6387;BME280;3226;42.162;24.756;2023-08-20T06:43:26;99826.06;;;25.02;54.64
6387;BME280;3226;42.162;24.756;2023-08-20T06:45:54;99829.16;;;25.05;54.09
6387;BME280;3226;42.162;24.756;2023-08-20T06:48:22;99830.34;;;25.09;53.68
6387;BME280;3226;42.162;24.756;2023-08-20T06:50:51;99826.59;;;25.17;54.11
6387;BME280;3226;42.162;24.756;2023-08-20T06:53:19;99824.97;;;25.35;53.54
6387;BME280;3226;42.162;24.756;2023-08-20T06:55:48;99806.59;;;25.38;53.04
6387;BME280;3226;42.162;24.756;2023-08-20T06:58:17;99832.75;;;25.68;52.38
6387;BME280;3226;42.162;24.756;2023-08-20T07:00:45;99824.34;;;25.83;52.64
6387;BME280;3226;42.162;24.756;2023-08-20T07:03:13;99827.75;;;25.91;51.36
6387;BME280;3226;42.162;24.756;2023-08-20T07:05:41;99824.97;;;25.97;51.32
6387;BME280;3226;42.162;24.756;2023-08-20T07:08:09;99828.56;;;26.10;50.69
6387;BME280;3226;42.162;24.756;2023-08-20T07:10:37;99821.84;;;26.19;50.03
6387;BME280;3226;42.162;24.756;2023-08-20T07:13:06;99821.53;;;26.27;49.94
6387;BME280;3226;42.162;24.756;2023-08-20T07:15:34;99823.28;;;26.22;49.66
6387;BME280;3226;42.162;24.756;2023-08-20T07:18:02;99825.72;;;26.23;49.47
6387;BME280;3226;42.162;24.756;2023-08-20T07:20:30;99827.41;;;26.36;49.06
6387;BME280;3226;42.162;24.756;2023-08-20T07:22:58;99822.31;;;26.16;49.44
6387;BME280;3226;42.162;24.756;2023-08-20T07:25:29;99829.31;;;25.80;50.58
6387;BME280;3226;42.162;24.756;2023-08-20T07:27:57;99824.44;;;26.07;50.07
6387;BME280;3226;42.162;24.756;2023-08-20T07:30:27;99821.53;;;26.27;49.33
6387;BME280;3226;42.162;24.756;2023-08-20T07:32:56;99830.16;;;26.48;50.01
6387;BME280;3226;42.162;24.756;2023-08-20T07:35:30;99827.19;;;26.38;48.14
6387;BME280;3226;42.162;24.756;2023-08-20T07:37:58;99824.16;;;26.34;49.14
6387;BME280;3226;42.162;24.756;2023-08-20T07:40:26;99819.88;;;26.45;48.94
6387;BME280;3226;42.162;24.756;2023-08-20T07:42:54;99826.00;;;26.64;48.68
6387;BME280;3226;42.162;24.756;2023-08-20T07:45:22;99825.38;;;26.93;47.41
6387;BME280;3226;42.162;24.756;2023-08-20T07:47:52;99812.34;;;27.08;47.09
6387;BME280;3226;42.162;24.756;2023-08-20T07:50:20;99818.19;;;27.05;46.64
6387;BME280;3226;42.162;24.756;2023-08-20T07:52:48;99820.28;;;27.15;46.19
6387;BME280;3226;42.162;24.756;2023-08-20T07:55:16;99804.63;;;27.24;46.28
6387;BME280;3226;42.162;24.756;2023-08-20T07:57:44;99817.50;;;27.46;46.00
6387;BME280;3226;42.162;24.756;2023-08-20T08:00:14;99816.78;;;27.62;45.32
6387;BME280;3226;42.162;24.756;2023-08-20T08:02:42;99817.38;;;27.64;44.67
6387;BME280;3226;42.162;24.756;2023-08-20T08:05:11;99818.78;;;27.67;44.62
6387;BME280;3226;42.162;24.756;2023-08-20T08:07:41;99812.81;;;27.77;44.27
6387;BME280;3226;42.162;24.756;2023-08-20T08:10:09;99812.06;;;27.81;44.34
6387;BME280;3226;42.162;24.756;2023-08-20T08:12:37;99814.28;;;27.84;44.89
6387;BME280;3226;42.162;24.756;2023-08-20T08:15:05;99806.03;;;27.62;44.85
6387;BME280;3226;42.162;24.756;2023-08-20T08:17:33;99809.41;;;28.10;43.75
6387;BME280;3226;42.162;24.756;2023-08-20T08:20:02;99806.63;;;28.17;43.29
6387;BME280;3226;42.162;24.756;2023-08-20T08:22:32;99807.81;;;28.38;43.20
6387;BME280;3226;42.162;24.756;2023-08-20T08:25:00;99801.25;;;28.05;43.31
6387;BME280;3226;42.162;24.756;2023-08-20T08:27:28;99791.16;;;28.24;43.17
6387;BME280;3226;42.162;24.756;2023-08-20T08:29:56;99802.47;;;28.55;43.11
6387;BME280;3226;42.162;24.756;2023-08-20T08:32:24;99808.38;;;28.69;42.03
6387;BME280;3226;42.162;24.756;2023-08-20T08:34:52;99803.97;;;28.80;42.12
6387;BME280;3226;42.162;24.756;2023-08-20T08:37:20;99783.47;;;28.79;41.03
6387;BME280;3226;42.162;24.756;2023-08-20T08:39:49;99793.78;;;28.82;41.33
6387;BME280;3226;42.162;24.756;2023-08-20T08:42:19;99792.81;;;29.06;41.06
6387;BME280;3226;42.162;24.756;2023-08-20T08:44:50;99789.03;;;29.07;41.85
6387;BME280;3226;42.162;24.756;2023-08-20T08:47:18;99786.25;;;29.19;41.17
6387;BME280;3226;42.162;24.756;2023-08-20T08:49:48;99792.84;;;29.28;40.07
6387;BME280;3226;42.162;24.756;2023-08-20T08:52:16;99799.44;;;29.37;40.06
6387;BME280;3226;42.162;24.756;2023-08-20T08:54:46;99785.94;;;29.54;39.82
6387;BME280;3226;42.162;24.756;2023-08-20T08:57:16;99789.59;;;29.65;39.58
6387;BME280;3226;42.162;24.756;2023-08-20T08:59:44;99791.06;;;29.73;39.03
6387;BME280;3226;42.162;24.756;2023-08-20T09:02:13;99791.41;;;29.82;38.71
6387;BME280;3226;42.162;24.756;2023-08-20T09:04:41;99796.38;;;29.90;38.42
6387;BME280;3226;42.162;24.756;2023-08-20T09:07:12;99787.56;;;30.00;38.36
6387;BME280;3226;42.162;24.756;2023-08-20T09:09:42;99784.94;;;30.05;38.02
6387;BME280;3226;42.162;24.756;2023-08-20T09:12:14;99796.00;;;30.04;38.22
6387;BME280;3226;42.162;24.756;2023-08-20T09:14:45;99785.78;;;30.06;37.77
6387;BME280;3226;42.162;24.756;2023-08-20T09:17:14;99786.34;;;30.08;38.24
6387;BME280;3226;42.162;24.756;2023-08-20T09:19:44;99785.38;;;29.97;37.50
6387;BME280;3226;42.162;24.756;2023-08-20T09:22:12;99775.53;;;30.08;37.84
6387;BME280;3226;42.162;24.756;2023-08-20T09:24:41;99779.13;;;30.13;38.05
6387;BME280;3226;42.162;24.756;2023-08-20T09:27:10;99752.41;;;30.17;37.17
6387;BME280;3226;42.162;24.756;2023-08-20T09:29:47;99776.59;;;30.34;37.17
6387;BME280;3226;42.162;24.756;2023-08-20T09:32:17;99768.31;;;30.41;37.24
6387;BME280;3226;42.162;24.756;2023-08-20T09:34:45;99768.53;;;30.39;36.61
6387;BME280;3226;42.162;24.756;2023-08-20T09:37:14;99759.38;;;30.40;37.45
6387;BME280;3226;42.162;24.756;2023-08-20T09:39:42;99768.38;;;30.51;36.99
6387;BME280;3226;42.162;24.756;2023-08-20T09:42:11;99765.81;;;30.62;37.03
6387;BME280;3226;42.162;24.756;2023-08-20T09:44:40;99761.25;;;30.67;35.66
6387;BME280;3226;42.162;24.756;2023-08-20T09:47:12;99743.38;;;30.61;35.48
6387;BME280;3226;42.162;24.756;2023-08-20T09:49:41;99746.63;;;31.01;35.52
6387;BME280;3226;42.162;24.756;2023-08-20T09:52:10;99751.53;;;31.52;34.31
6387;BME280;3226;42.162;24.756;2023-08-20T09:54:57;99751.50;;;32.63;32.50
6387;BME280;3226;42.162;24.756;2023-08-20T09:57:33;99756.00;;;33.45;31.11
6387;BME280;3226;42.162;24.756;2023-08-20T10:00:03;99730.22;;;33.32;30.92
6387;BME280;3226;42.162;24.756;2023-08-20T10:02:37;99754.75;;;32.85;31.48
6387;BME280;3226;42.162;24.756;2023-08-20T10:05:07;99740.69;;;32.42;31.92
6387;BME280;3226;42.162;24.756;2023-08-20T10:07:35;99746.03;;;32.26;32.90
6387;BME280;3226;42.162;24.756;2023-08-20T10:10:05;99740.06;;;32.14;32.54
6387;BME280;3226;42.162;24.756;2023-08-20T10:12:34;99741.66;;;31.99;33.33
6387;BME280;3226;42.162;24.756;2023-08-20T10:15:07;99739.47;;;31.76;33.44
6387;BME280;3226;42.162;24.756;2023-08-20T10:17:38;99731.28;;;31.70;33.81
6387;BME280;3226;42.162;24.756;2023-08-20T10:20:08;99732.16;;;31.81;32.91
6387;BME280;3226;42.162;24.756;2023-08-20T10:22:38;99729.66;;;31.69;31.83
6387;BME280;3226;42.162;24.756;2023-08-20T10:25:07;99725.13;;;31.22;33.41
6387;BME280;3226;42.162;24.756;2023-08-20T10:27:37;99727.06;;;31.26;33.09
6387;BME280;3226;42.162;24.756;2023-08-20T10:30:08;99725.22;;;31.37;32.84
6387;BME280;3226;42.162;24.756;2023-08-20T10:32:47;99720.50;;;31.17;33.60
6387;BME280;3226;42.162;24.756;2023-08-20T10:35:17;99701.94;;;31.36;32.68
6387;BME280;3226;42.162;24.756;2023-08-20T10:38:04;99707.91;;;31.38;33.16
6387;BME280;3226;42.162;24.756;2023-08-20T10:40:52;99713.91;;;31.51;33.13
6387;BME280;3226;42.162;24.756;2023-08-20T10:43:31;99710.13;;;31.52;33.29
6387;BME280;3226;42.162;24.756;2023-08-20T10:46:04;99707.16;;;31.53;33.81
6387;BME280;3226;42.162;24.756;2023-08-20T10:48:38;99709.88;;;31.64;32.93
6387;BME280;3226;42.162;24.756;2023-08-20T10:51:08;99703.19;;;31.77;32.53
6387;BME280;3226;42.162;24.756;2023-08-20T10:53:36;99695.63;;;31.79;32.26
6387;BME280;3226;42.162;24.756;2023-08-20T10:56:12;99697.00;;;31.92;33.08
6387;BME280;3226;42.162;24.756;2023-08-20T10:58:45;99697.00;;;32.02;32.43
6387;BME280;3226;42.162;24.756;2023-08-20T11:01:19;99697.56;;;32.20;31.97
6387;BME280;3226;42.162;24.756;2023-08-20T11:03:49;99692.16;;;32.20;32.25
6387;BME280;3226;42.162;24.756;2023-08-20T11:06:18;99685.94;;;32.35;31.90
6387;BME280;3226;42.162;24.756;2023-08-20T11:08:46;99682.94;;;32.41;32.25
6387;BME280;3226;42.162;24.756;2023-08-20T11:11:15;99684.84;;;32.51;32.08
6387;BME280;3226;42.162;24.756;2023-08-20T11:13:43;99686.19;;;32.59;31.88
6387;BME280;3226;42.162;24.756;2023-08-20T11:16:11;99683.47;;;32.69;31.18
6387;BME280;3226;42.162;24.756;2023-08-20T11:18:39;99682.63;;;32.69;31.39
6387;BME280;3226;42.162;24.756;2023-08-20T11:21:09;99676.69;;;32.77;31.46
6387;BME280;3226;42.162;24.756;2023-08-20T11:23:38;99681.00;;;32.83;31.33
6387;BME280;3226;42.162;24.756;2023-08-20T11:26:08;99668.81;;;32.96;31.04
6387;BME280;3226;42.162;24.756;2023-08-20T11:28:36;99667.94;;;33.01;30.98
6387;BME280;3226;42.162;24.756;2023-08-20T11:31:04;99658.72;;;33.02;30.70
6387;BME280;3226;42.162;24.756;2023-08-20T11:33:32;99654.97;;;32.82;31.07
6387;BME280;3226;42.162;24.756;2023-08-20T11:36:03;99652.22;;;33.03;31.12
6387;BME280;3226;42.162;24.756;2023-08-20T11:38:35;99650.31;;;33.09;30.89
6387;BME280;3226;42.162;24.756;2023-08-20T11:41:03;99647.84;;;33.17;30.92
6387;BME280;3226;42.162;24.756;2023-08-20T11:43:32;99638.06;;;33.16;30.67
6387;BME280;3226;42.162;24.756;2023-08-20T11:46:00;99642.38;;;33.23;30.53
6387;BME280;3226;42.162;24.756;2023-08-20T11:48:28;99643.44;;;33.27;30.87
6387;BME280;3226;42.162;24.756;2023-08-20T11:50:57;99645.81;;;33.39;30.44
6387;BME280;3226;42.162;24.756;2023-08-20T11:53:28;99639.53;;;33.54;30.08
6387;BME280;3226;42.162;24.756;2023-08-20T11:55:57;99634.91;;;33.54;30.83
6387;BME280;3226;42.162;24.756;2023-08-20T11:58:28;99630.00;;;33.62;29.64
6387;BME280;3226;42.162;24.756;2023-08-20T12:00:56;99627.81;;;33.64;29.96
6387;BME280;3226;42.162;24.756;2023-08-20T12:03:29;99624.22;;;33.68;29.79
6387;BME280;3226;42.162;24.756;2023-08-20T12:05:58;99626.41;;;33.66;30.21
6387;BME280;3226;42.162;24.756;2023-08-20T12:08:26;99604.50;;;33.52;30.01
6387;BME280;3226;42.162;24.756;2023-08-20T12:10:59;99623.69;;;33.66;30.32
6387;BME280;3226;42.162;24.756;2023-08-20T12:13:27;99625.34;;;33.62;29.80
6387;BME280;3226;42.162;24.756;2023-08-20T12:15:55;99621.91;;;33.51;29.73
6387;BME280;3226;42.162;24.756;2023-08-20T12:18:23;99596.63;;;33.56;29.44
6387;BME280;3226;42.162;24.756;2023-08-20T12:20:51;99606.88;;;33.64;29.50
6387;BME280;3226;42.162;24.756;2023-08-20T12:23:20;99600.56;;;33.74;29.60
6387;BME280;3226;42.162;24.756;2023-08-20T12:25:50;99598.13;;;33.72;29.78
6387;BME280;3226;42.162;24.756;2023-08-20T12:28:19;99596.50;;;33.71;29.02
6387;BME280;3226;42.162;24.756;2023-08-20T12:30:47;99599.75;;;33.73;29.20
6387;BME280;3226;42.162;24.756;2023-08-20T12:33:15;99600.75;;;33.88;29.06
6387;BME280;3226;42.162;24.756;2023-08-20T12:35:43;99600.94;;;33.62;29.21
6387;BME280;3226;42.162;24.756;2023-08-20T12:38:11;99589.47;;;33.70;29.44
6387;BME280;3226;42.162;24.756;2023-08-20T12:40:40;99596.94;;;33.89;29.13
6387;BME280;3226;42.162;24.756;2023-08-20T12:43:08;99589.81;;;33.98;29.60
6387;BME280;3226;42.162;24.756;2023-08-20T12:45:37;99586.75;;;33.70;28.62
6387;BME280;3226;42.162;24.756;2023-08-20T12:48:06;99589.13;;;33.42;29.34
6387;BME280;3226;42.162;24.756;2023-08-20T12:50:36;99584.25;;;33.44;29.63
6387;BME280;3226;42.162;24.756;2023-08-20T12:53:04;99581.41;;;33.60;29.87
6387;BME280;3226;42.162;24.756;2023-08-20T12:55:32;99580.97;;;33.82;29.51
6387;BME280;3226;42.162;24.756;2023-08-20T12:58:00;99577.34;;;33.97;28.95
6387;BME280;3226;42.162;24.756;2023-08-20T13:00:28;99570.44;;;34.10;29.33
6387;BME280;3226;42.162;24.756;2023-08-20T13:02:58;99565.13;;;34.24;28.80
6387;BME280;3226;42.162;24.756;2023-08-20T13:05:27;99570.56;;;34.24;28.99
6387;BME280;3226;42.162;24.756;2023-08-20T13:07:56;99566.16;;;34.28;28.89
6387;BME280;3226;42.162;24.756;2023-08-20T13:10:24;99570.44;;;34.35;28.91
6387;BME280;3226;42.162;24.756;2023-08-20T13:12:59;99561.72;;;34.38;28.92
6387;BME280;3226;42.162;24.756;2023-08-20T13:15:29;99556.28;;;34.38;28.90
6387;BME280;3226;42.162;24.756;2023-08-20T13:17:59;99556.75;;;34.45;28.59
6387;BME280;3226;42.162;24.756;2023-08-20T13:20:27;99546.31;;;34.33;29.09
6387;BME280;3226;42.162;24.756;2023-08-20T13:22:55;99548.13;;;34.13;28.25